Share

Worland, WY

8:39 PM MDT on April 23, 2014 (GMT -0600)
Worland Municipal (KWRL) Elev 4226 ft | 43.97 °N, 107.95 °W | Change Station

Current weather conditions updated 46 minutes ago

Clear
Clear
50 °F
Feels Like 50 °F
N
14
Wind Variable Wind from WNW
Sunrise 6:15 AM
Sunset 8:05 PM
Moon Waning Crescent

Tomorrow is forecast to be Warmer than today.

Pressure 29.81 in
Visibility 10.0 miles
Clouds Clear
Dew Point 5 °F
Humidity 16%
Rainfall 0.00 in
Snow Depth Not available.
UV 0 out of 16
Pollen 9.30 out of 12
Air Quality Not available.
Flu Activity Sporadic
METAR KWRL 240153Z AUTO 29012KT 10SM CLR 10/M15 A2983 RMK AO2 SLP093 T01001150

More Conditions Fewer Conditions

Pressure 29.81 in
Visibility 10.0 miles
Clouds Clear
Dew Point 5 °F
Humidity 16%
Rainfall 0.00 in
Snow Depth Not available.
UV 0 out of 16
Pollen 9.30 out of 12
Air Quality Not available.
Flu Activity Sporadic
METAR KWRL 240153Z AUTO 29012KT 10SM CLR 10/M15 A2983 RMK AO2 SLP093 T01001150

More Conditions Fewer Conditions

10-Day Weather Forecast

Almanac

Astronomy

Apr. 23, 2014 Rise Set
Actual Time 6:15 AM MDT 8:05 PM MDT
Civil Twilight 5:44 AM MDT 8:36 PM MDT
Nautical Twilight 5:06 AM MDT 9:14 PM MDT
Astronomical Twilight 4:26 AM MDT 9:55 PM MDT
Moon 3:01 AM MDT (4/23) 2:05 PM MDT (4/23)
Length of Visible Light 14h 52m
Length of Day
13h 50m
Tomorrow will be 2m 46s longer.
Waning Crescent, 30% of the Moon is Illuminated
Today
Waning Crescent
Apr 29
New
May 6
First Quarter
May 14
Full
May 21
Last Quarter

Today's Extremes

State Highs State Lows

Community

  • Nestled In
    Nestled In
  • Stunning Sunrise
    Stunning Sunrise
  • spring flowers
    spring flowers
  • Earth Day Spectrum Ove' Blue
    Earth Day Spectrum Ove' Blue
  • BARN B&W
    BARN B&W

WunderPhotos

Upload Photos

1,704,516 photos uploaded!

WunderBlogs® & News

Nearby

Snow Depth

Station Depth Elevation
Little Warm 39 in 9370 ft
Hobbs Park 46 in 10100 ft
Evening Star 110 in 9200 ft
Townsend Creek 19 in 8700 ft
Gunsight Pass 46 in 9820 ft

Coastal Water Temperatures

Place Temperature
No Stations Reporting

Earthquake Activity

City Distance Mag. Time & Date
No recent earthquake activity has been reported nearby.
Minimum magnitude displayed is 2.5.

Nearby Weather Stations

Station Location Temp. Windchill Dew Point Humidity Wind Precip. Elev Updated Type
Basin, WY 48.6 °F 49 °F 17 °F 28% West  at  0.0 mph 0.00 in / hr 4537 ft 8:38 PM MDT Normal
Town Center, Hyattville, WY 45.4 °F 41 °F 16 °F 30% WNW  at  8.0 mph 0.00 in / hr 4459 ft 8:35 PM MDT Normal

Show More Stations Show Fewer Stations

What do you think?

We're not finished. Please let us know what you like, what you don't like, and what you are still missing.